Time;durP1;ratioP1;P1;durP2;ratioP2;P2;SDS_P1;SDS_P2;PMS_P1;PMS_P2;Temp;Humidity;BMP_temperature;BMP_pressure;BME280_temperature;BME280_humidity;BME280_pressure;Samples;Min_cycle;Max_cycle;Signal;HPM_P1;HPM_P2
2021/07/05 00:01:15;;;;;;;7.50;6.65;;;;;;;21.34;95.18;98948.97;1707108;84;21034;-75
2021/07/05 00:03:44;;;;;;;12.53;7.25;;;;;;;21.34;95.24;98948.17;1707131;84;21502;-76
2021/07/05 00:06:11;;;;;;;11.90;6.83;;;;;;;21.31;94.99;98953.16;1707383;82;21083;-73
2021/07/05 00:08:39;;;;;;;15.00;7.42;;;;;;;21.37;94.16;98951.59;1707074;84;21486;-73
2021/07/05 00:11:05;;;;;;;16.35;8.43;;;;;;;21.38;93.99;98948.52;1706966;84;20993;-72
2021/07/05 00:13:33;;;;;;;24.20;9.48;;;;;;;21.40;93.98;98949.52;1707060;84;21070;-74
2021/07/05 00:15:59;;;;;;;19.42;11.33;;;;;;;21.36;93.95;98950.78;1702235;82;21113;-74
2021/07/05 00:18:27;;;;;;;13.48;10.88;;;;;;;21.31;93.95;98947.70;1706641;84;21020;-73
2021/07/05 00:20:55;;;;;;;18.82;11.57;;;;;;;21.28;94.36;98956.59;1705774;84;21033;-75
2021/07/05 00:23:22;;;;;;;13.78;9.68;;;;;;;21.24;94.71;98956.23;1704930;84;20978;-75
2021/07/05 00:25:49;;;;;;;8.88;6.37;;;;;;;21.19;95.11;98957.81;1704984;84;21010;-75
2021/07/05 00:28:17;;;;;;;15.25;8.05;;;;;;;21.14;95.49;98964.30;1735262;82;21198;-76
2021/07/05 00:30:45;;;;;;;8.15;7.33;;;;;;;21.12;96.12;98957.52;1718395;82;20951;-75
2021/07/05 00:33:13;;;;;;;8.43;6.95;;;;;;;21.08;95.93;98962.07;1705522;82;20941;-76
2021/07/05 00:35:40;;;;;;;9.45;6.72;;;;;;;21.06;96.09;98961.59;1709365;82;21017;-73
2021/07/05 00:38:08;;;;;;;10.25;7.78;;;;;;;21.03;96.29;98958.17;1725747;82;21035;-75
2021/07/05 00:40:35;;;;;;;11.63;7.17;;;;;;;21.02;96.57;98960.67;1681163;84;21103;-75
2021/07/05 00:43:03;;;;;;;8.43;7.20;;;;;;;21.00;96.26;98951.47;1706460;84;21020;-77
2021/07/05 00:45:31;;;;;;;11.68;6.42;;;;;;;20.99;96.28;98949.05;1725009;82;21025;-75
2021/07/05 00:47:58;;;;;;;13.22;6.45;;;;;;;21.01;95.81;98950.30;1706384;84;21083;-75
2021/07/05 00:50:27;;;;;;;8.03;6.45;;;;;;;21.02;95.65;98940.97;1710356;83;21586;-77
2021/07/05 00:52:56;;;;;;;6.67;5.83;;;;;;;21.02;95.69;98933.34;1691996;84;21145;-76
2021/07/05 00:55:23;;;;;;;7.15;6.28;;;;;;;21.03;96.12;98942.58;1736044;82;20984;-77
2021/07/05 00:57:50;;;;;;;9.15;8.03;;;;;;;21.01;96.25;98940.73;1707132;82;21103;-77
2021/07/05 01:00:19;;;;;;;11.22;7.25;;;;;;;20.98;96.34;98935.95;1678648;82;20996;-77
2021/07/05 01:02:46;;;;;;;11.57;9.15;;;;;;;20.94;96.40;98939.70;1717750;82;21736;-75
2021/07/05 01:05:13;;;;;;;10.18;6.30;;;;;;;20.87;97.07;98939.66;1719094;82;22020;-75
2021/07/05 01:07:40;;;;;;;8.08;6.50;;;;;;;20.87;95.98;98936.93;1693312;84;21090;-76
2021/07/05 01:10:08;;;;;;;10.18;6.25;;;;;;;20.88;95.66;98939.91;1706382;84;21080;-77
2021/07/05 01:12:38;;;;;;;8.65;6.60;;;;;;;20.88;96.26;98939.09;1706423;83;21041;-76
2021/07/05 01:15:11;;;;;;;7.33;6.62;;;;;;;20.89;96.52;98942.07;1694028;83;21039;-76
2021/07/05 01:17:40;;;;;;;10.48;6.67;;;;;;;20.89;96.58;98929.77;1707432;82;20992;-76
2021/07/05 01:20:09;;;;;;;8.40;7.45;;;;;;;20.93;96.52;98931.25;1689878;83;20985;-77
2021/07/05 01:22:36;;;;;;;7.40;6.62;;;;;;;20.94;96.39;98929.56;1691294;83;21012;-76
2021/07/05 01:25:08;;;;;;;6.35;5.70;;;;;;;20.98;96.28;98933.78;1710991;83;21541;-76
2021/07/05 01:27:34;;;;;;;11.83;5.80;;;;;;;21.00;95.96;98934.26;1711242;83;21099;-74
2021/07/05 01:30:05;;;;;;;12.82;6.97;;;;;;;21.00;95.75;98932.89;1711053;83;21509;-76
2021/07/05 01:32:32;;;;;;;9.40;6.42;;;;;;;21.03;95.73;98931.64;1708651;83;20976;-76
2021/07/05 01:34:58;;;;;;;11.05;7.33;;;;;;;21.05;95.42;98935.41;1711067;83;21577;-75
2021/07/05 01:37:25;;;;;;;10.48;5.78;;;;;;;21.07;95.15;98934.49;1683506;83;21022;-76
2021/07/05 01:39:52;;;;;;;14.07;6.55;;;;;;;21.08;95.00;98932.80;1682487;85;21056;-78
2021/07/05 01:42:20;;;;;;;8.53;6.03;;;;;;;21.12;94.76;98932.34;1683201;83;21148;-75
2021/07/05 01:44:47;;;;;;;9.43;7.22;;;;;;;21.18;94.50;98937.06;1684201;83;21600;-77
2021/07/05 01:47:14;;;;;;;7.72;7.10;;;;;;;21.20;93.98;98934.78;1682395;85;21060;-76
2021/07/05 01:49:44;;;;;;;9.35;6.55;;;;;;;21.20;93.69;98936.95;1682389;85;21114;-76
2021/07/05 01:52:09;;;;;;;7.85;7.00;;;;;;;21.16;93.77;98938.77;1686976;83;21009;-76
2021/07/05 01:54:36;;;;;;;7.75;6.20;;;;;;;21.17;93.85;98935.47;1682123;84;21128;-77
2021/07/05 01:57:03;;;;;;;8.28;6.87;;;;;;;21.16;93.61;98941.50;1687475;85;21550;-77
2021/07/05 01:59:30;;;;;;;7.83;7.10;;;;;;;21.09;93.96;98945.91;1677150;85;21072;-75
2021/07/05 02:01:56;;;;;;;7.85;7.08;;;;;;;21.03;94.35;98954.88;1688852;85;21021;-75
2021/07/05 02:04:26;;;;;;;10.63;7.55;;;;;;;20.99;94.70;98964.09;1677860;85;21080;-76
2021/07/05 02:06:53;;;;;;;7.00;6.30;;;;;;;21.02;94.90;98962.84;1686084;83;21141;-75
2021/07/05 02:09:20;;;;;;;7.42;6.67;;;;;;;21.07;94.69;98965.37;1712102;83;21031;-77
2021/07/05 02:11:48;;;;;;;7.45;6.55;;;;;;;21.09;94.31;98967.22;1707019;82;21073;-75
2021/07/05 02:14:14;;;;;;;12.63;6.47;;;;;;;21.07;94.26;98967.30;1687726;83;21001;-76
2021/07/05 02:16:41;;;;;;;8.85;6.12;;;;;;;21.05;94.48;98967.66;1677100;85;21501;-75
2021/07/05 02:19:08;;;;;;;8.58;6.65;;;;;;;21.04;94.47;98971.52;1696445;83;21095;-75
2021/07/05 02:21:36;;;;;;;7.58;6.72;;;;;;;21.00;94.75;98980.17;1732455;81;21098;-75
2021/07/05 02:24:04;;;;;;;7.67;6.85;;;;;;;20.96;95.06;98977.08;1710942;83;20927;-75
2021/07/05 02:26:31;;;;;;;10.65;7.25;;;;;;;20.93;95.32;98974.43;1733289;82;21726;-74
2021/07/05 02:28:58;;;;;;;10.08;6.12;;;;;;;21.00;95.41;98972.53;1731204;82;21113;-76
2021/07/05 02:31:25;;;;;;;7.40;6.70;;;;;;;21.02;94.97;98979.25;1711993;82;22256;-75
2021/07/05 02:33:52;;;;;;;7.42;6.70;;;;;;;21.06;94.95;98973.90;1711027;83;21014;-75
2021/07/05 02:36:19;;;;;;;6.90;6.22;;;;;;;21.07;94.62;98980.97;1711037;83;21708;-76
2021/07/05 02:38:48;;;;;;;8.35;7.20;;;;;;;21.07;94.48;98985.88;1710981;83;21103;-76
2021/07/05 02:41:16;;;;;;;6.67;6.05;;;;;;;21.08;94.56;98979.84;1711872;82;21001;-75
2021/07/05 02:43:44;;;;;;;10.28;6.78;;;;;;;21.07;94.51;98980.97;1713704;82;21500;-76
2021/07/05 02:46:11;;;;;;;11.97;7.08;;;;;;;21.05;94.57;98979.96;1741835;82;21652;-76
2021/07/05 02:48:40;;;;;;;6.22;5.62;;;;;;;21.04;94.79;98992.59;1740993;82;21554;-75
2021/07/05 02:51:08;;;;;;;6.42;5.83;;;;;;;21.01;94.80;98989.14;1730112;82;21993;-74
2021/07/05 02:53:36;;;;;;;9.58;6.62;;;;;;;20.99;95.02;98993.60;1703730;83;21645;-75
2021/07/05 02:56:04;;;;;;;7.42;6.33;;;;;;;20.99;95.07;98980.50;1694312;84;21140;-75
2021/07/05 02:58:32;;;;;;;9.15;7.00;;;;;;;21.00;95.13;98995.77;1694434;83;21035;-75
2021/07/05 03:01:00;;;;;;;11.18;6.75;;;;;;;20.97;95.34;98988.22;1697425;83;21050;-77
2021/07/05 03:03:27;;;;;;;10.10;6.92;;;;;;;20.96;95.42;98988.78;1738315;82;21012;-75
2021/07/05 03:05:55;;;;;;;7.50;6.47;;;;;;;20.95;95.68;98994.05;1740540;82;21054;-75
2021/07/05 03:08:21;;;;;;;9.05;5.47;;;;;;;20.93;95.73;99000.41;1740585;82;21773;-75
2021/07/05 03:10:48;;;;;;;7.45;6.30;;;;;;;20.94;95.81;98993.81;1712467;82;21025;-74
2021/07/05 03:13:18;;;;;;;9.10;6.67;;;;;;;20.97;95.83;98997.79;1733276;82;20977;-76
2021/07/05 03:15:46;;;;;;;9.03;7.75;;;;;;;20.97;95.90;98998.59;1738864;82;20978;-75
2021/07/05 03:18:13;;;;;;;8.68;6.42;;;;;;;20.94;95.96;98996.54;1733553;82;21031;-76
2021/07/05 03:20:46;;;;;;;11.50;8.68;;;;;;;20.93;96.30;98992.20;1706941;83;21198;-75
2021/07/05 03:23:15;;;;;;;8.88;6.92;;;;;;;20.93;96.36;98985.93;1730873;82;21029;-75
2021/07/05 03:25:42;;;;;;;7.92;7.17;;;;;;;20.93;96.49;98979.09;1735949;82;20907;-74
2021/07/05 03:28:12;;;;;;;11.33;7.50;;;;;;;20.98;96.40;98981.63;1736767;82;20954;-74
2021/07/05 03:30:41;;;;;;;8.43;7.22;;;;;;;21.01;96.11;98973.55;1735971;82;21042;-77
2021/07/05 03:33:08;;;;;;;7.50;6.80;;;;;;;21.06;95.91;98971.16;1735669;82;21214;-75
2021/07/05 03:35:36;;;;;;;9.35;8.43;;;;;;;21.09;95.73;98969.95;1719206;82;21063;-75
2021/07/05 03:38:05;;;;;;;7.33;6.65;;;;;;;21.13;95.50;98970.90;1706299;84;21020;-75
2021/07/05 03:40:34;;;;;;;15.75;8.13;;;;;;;21.13;95.28;98976.91;1670026;84;21545;-75
2021/07/05 03:43:03;;;;;;;9.23;7.40;;;;;;;21.16;95.31;98969.41;1723992;82;21041;-73
2021/07/05 03:45:32;;;;;;;9.20;6.87;;;;;;;21.22;95.23;98974.91;1736053;82;21119;-73
2021/07/05 03:47:59;;;;;;;11.93;9.30;;;;;;;21.29;94.98;98972.44;1735559;82;20938;-71
2021/07/05 03:50:26;;;;;;;9.80;8.30;;;;;;;21.22;95.10;98970.24;1735627;82;21052;-70
2021/07/05 03:52:54;;;;;;;12.45;7.85;;;;;;;21.12;96.00;98971.20;1734969;82;20970;-72
2021/07/05 03:55:22;;;;;;;9.53;7.67;;;;;;;21.09;96.41;98970.52;1735667;82;21530;-73
2021/07/05 03:57:50;;;;;;;13.13;7.70;;;;;;;21.10;96.18;98974.26;1714230;82;21163;-72
2021/07/05 04:00:30;;;;;;;9.85;8.48;;;;;;;21.15;96.29;98966.47;1706251;84;20953;-72
2021/07/05 04:02:57;;;;;;;8.80;7.90;;;;;;;21.18;95.94;98970.69;1706986;82;21020;-74
2021/07/05 04:05:26;;;;;;;9.23;8.18;;;;;;;21.25;95.84;98975.59;1679925;84;21549;-72
2021/07/05 04:07:53;;;;;;;10.23;9.23;;;;;;;21.31;95.69;98968.21;1715844;83;21035;-72
2021/07/05 04:10:21;;;;;;;12.28;8.13;;;;;;;21.43;95.53;98974.30;1722423;83;21954;-72
2021/07/05 04:12:48;;;;;;;13.10;8.05;;;;;;;21.55;94.89;98970.77;1721933;83;20980;-71
2021/07/05 04:15:18;;;;;;;8.25;7.42;;;;;;;21.63;93.63;98968.52;1721752;83;21600;-71
2021/07/05 04:17:45;;;;;;;14.13;10.15;;;;;;;21.64;93.47;98972.27;1721785;83;21493;-73
2021/07/05 04:20:17;;;;;;;9.28;8.23;;;;;;;21.72;93.19;98971.95;1696877;83;20961;-72
2021/07/05 04:22:45;;;;;;;10.30;8.68;;;;;;;21.83;92.98;98970.34;1738978;82;21084;-72
2021/07/05 04:25:13;;;;;;;11.60;9.03;;;;;;;21.96;92.41;98963.78;1740611;82;21005;-73
2021/07/05 04:27:42;;;;;;;10.58;9.48;;;;;;;21.89;91.41;98968.98;1740618;82;21085;-70
2021/07/05 04:30:11;;;;;;;11.70;10.55;;;;;;;21.74;92.09;98962.23;1740486;82;21061;-73
2021/07/05 04:32:38;;;;;;;12.05;10.85;;;;;;;21.67;92.86;98967.49;1715770;82;21076;-72
2021/07/05 04:35:08;;;;;;;11.83;10.60;;;;;;;21.65;93.79;98972.50;1710956;83;21143;-73
2021/07/05 04:37:35;;;;;;;11.35;9.90;;;;;;;21.69;93.75;98972.04;1711255;83;21509;-72
2021/07/05 04:40:11;;;;;;;11.53;10.25;;;;;;;21.70;93.28;98968.73;1710993;83;20999;-72
2021/07/05 04:42:39;;;;;;;11.22;10.13;;;;;;;21.73;93.16;98970.78;1735859;82;20966;-73
2021/07/05 04:45:07;;;;;;;15.83;11.05;;;;;;;21.74;92.95;98973.75;1740778;82;21022;-75
2021/07/05 04:47:34;;;;;;;10.35;9.45;;;;;;;21.73;93.18;98970.78;1740819;82;21340;-72
2021/07/05 04:50:01;;;;;;;13.32;10.70;;;;;;;21.75;92.76;98982.20;1740478;82;20985;-72
2021/07/05 04:52:28;;;;;;;11.18;10.18;;;;;;;21.81;92.62;98987.69;1740899;82;22289;-73
2021/07/05 04:54:55;;;;;;;12.05;10.60;;;;;;;21.87;92.62;98984.94;1742063;82;20939;-71
2021/07/05 04:57:22;;;;;;;12.00;10.80;;;;;;;21.89;93.04;98981.87;1740973;82;21495;-72
2021/07/05 04:59:49;;;;;;;13.65;10.45;;;;;;;21.94;93.02;98983.84;1719732;82;21133;-71
2021/07/05 05:02:15;;;;;;;13.78;10.20;;;;;;;22.01;92.68;98984.09;1715474;82;20936;-73
2021/07/05 05:04:44;;;;;;;10.95;9.90;;;;;;;22.05;91.95;98982.82;1711083;83;21568;-72
2021/07/05 05:07:11;;;;;;;11.78;9.93;;;;;;;22.10;92.23;98982.03;1711021;83;21497;-73
2021/07/05 05:09:38;;;;;;;11.60;10.50;;;;;;;22.17;91.96;98984.97;1711024;83;21126;-72
2021/07/05 05:12:06;;;;;;;12.18;9.88;;;;;;;22.23;91.45;98980.06;1735605;82;22328;-73
2021/07/05 05:14:33;;;;;;;12.00;10.80;;;;;;;22.26;91.03;98985.41;1740609;82;20946;-74
2021/07/05 05:17:00;;;;;;;12.00;10.80;;;;;;;22.32;91.19;98982.67;1740689;82;21502;-73
2021/07/05 05:19:26;;;;;;;11.12;10.03;;;;;;;22.32;91.52;98975.83;1740032;82;21066;-74
2021/07/05 05:21:53;;;;;;;11.15;9.90;;;;;;;22.35;91.79;98973.78;1714004;82;21538;-75
2021/07/05 05:24:23;;;;;;;11.35;10.18;;;;;;;22.43;91.35;98975.59;1706622;83;21893;-73
2021/07/05 05:26:49;;;;;;;17.80;10.38;;;;;;;22.49;90.19;98974.22;1706441;84;21040;-72
2021/07/05 05:29:16;;;;;;;11.40;9.68;;;;;;;22.52;90.21;98978.42;1715648;82;22164;-73
2021/07/05 05:31:43;;;;;;;12.43;10.23;;;;;;;22.57;89.76;98978.19;1735267;82;22274;-72
2021/07/05 05:34:11;;;;;;;10.30;9.10;;;;;;;22.57;89.86;98986.41;1735725;82;21045;-73
2021/07/05 05:36:40;;;;;;;9.98;8.98;;;;;;;22.64;89.19;98987.77;1735939;82;21146;-74
2021/07/05 05:39:07;;;;;;;9.73;8.73;;;;;;;22.67;89.27;98992.55;1735919;82;20982;-73
2021/07/05 05:41:34;;;;;;;17.02;10.00;;;;;;;22.73;89.40;98989.83;1719780;82;20950;-74
2021/07/05 05:44:02;;;;;;;9.08;8.25;;;;;;;22.82;89.02;98986.38;1706355;84;21518;-72
2021/07/05 05:46:32;;;;;;;13.88;10.23;;;;;;;22.89;88.34;98996.97;1693394;84;20980;-72
2021/07/05 05:49:00;;;;;;;11.45;10.30;;;;;;;22.91;87.66;98999.37;1692937;84;21158;-72
2021/07/05 05:51:32;;;;;;;11.45;10.35;;;;;;;22.91;87.14;98993.31;1709135;83;21052;-72
2021/07/05 05:54:00;;;;;;;11.30;9.90;;;;;;;22.95;87.01;98996.15;1735684;82;21013;-73
2021/07/05 05:56:27;;;;;;;9.48;8.60;;;;;;;22.98;87.21;98994.07;1735713;82;21632;-75
2021/07/05 05:58:59;;;;;;;14.20;10.60;;;;;;;23.02;87.24;98991.65;1735785;82;20974;-72
2021/07/05 06:01:23;;;;;;;8.98;8.15;;;;;;;23.12;87.38;98997.81;1731444;82;21166;-71
2021/07/05 06:03:50;;;;;;;19.82;10.28;;;;;;;23.23;86.25;98993.39;1734873;82;21526;-73
2021/07/05 06:06:16;;;;;;;17.48;12.98;;;;;;;23.31;84.84;98985.00;1704993;84;20956;-74
2021/07/05 06:08:43;;;;;;;11.53;10.43;;;;;;;23.35;85.06;98976.88;1706416;84;20968;-73
2021/07/05 06:11:10;;;;;;;15.78;10.13;;;;;;;23.37;84.50;98986.92;1705919;82;21073;-72
2021/07/05 06:13:36;;;;;;;11.55;8.68;;;;;;;23.38;84.01;98982.45;1720857;82;21902;-74
2021/07/05 06:16:05;;;;;;;9.55;8.60;;;;;;;23.44;84.59;98977.52;1712801;83;21522;-74
2021/07/05 06:18:31;;;;;;;8.95;8.18;;;;;;;23.55;84.36;98980.57;1715035;82;22286;-75
2021/07/05 06:20:58;;;;;;;9.25;7.85;;;;;;;23.66;83.53;98985.17;1739715;82;22177;-74
2021/07/05 06:23:30;;;;;;;10.75;9.43;;;;;;;23.71;83.00;98979.98;1714282;82;21159;-71
2021/07/05 06:25:57;;;;;;;10.03;9.10;;;;;;;23.77;83.48;98979.38;1663814;85;21110;-73
2021/07/05 06:28:26;;;;;;;18.30;10.08;;;;;;;23.84;83.97;98973.25;1690460;82;21582;-73
2021/07/05 06:30:53;;;;;;;10.38;9.13;;;;;;;23.94;83.62;98978.78;1711198;83;20993;-74
2021/07/05 06:33:21;;;;;;;10.20;9.30;;;;;;;24.00;82.36;98980.91;1710945;83;21069;-73
2021/07/05 06:35:48;;;;;;;9.63;8.73;;;;;;;24.06;81.33;98974.58;1733279;82;21089;-73
2021/07/05 06:38:17;;;;;;;11.22;10.20;;;;;;;24.06;82.49;98984.98;1740395;82;21110;-73
2021/07/05 06:40:44;;;;;;;10.28;9.00;;;;;;;24.10;82.37;98986.44;1740923;82;20970;-73
2021/07/05 06:43:16;;;;;;;8.93;7.80;;;;;;;24.17;81.69;98981.16;1712860;82;20943;-73
2021/07/05 06:45:41;;;;;;;9.23;8.05;;;;;;;24.21;81.71;98982.03;1725465;82;21069;-73
2021/07/05 06:48:08;;;;;;;8.78;7.87;;;;;;;24.22;81.25;98974.78;1740520;82;21084;-72
2021/07/05 06:50:37;;;;;;;12.43;10.13;;;;;;;24.28;80.67;98979.44;1740512;82;21141;-74
2021/07/05 06:53:05;;;;;;;10.85;9.80;;;;;;;24.24;80.93;98983.48;1740405;82;20998;-73
2021/07/05 06:55:33;;;;;;;9.30;8.40;;;;;;;24.23;81.43;98983.26;1726226;82;21498;-75
2021/07/05 06:58:00;;;;;;;8.40;7.67;;;;;;;24.25;79.98;98976.04;1690481;83;21010;-73
2021/07/05 07:00:28;;;;;;;15.30;9.18;;;;;;;24.28;80.20;98978.06;1711247;83;20986;-74
2021/07/05 07:02:57;;;;;;;12.90;9.78;;;;;;;24.36;80.16;98979.84;1711857;83;21175;-72
2021/07/05 07:05:26;;;;;;;8.85;7.95;;;;;;;24.43;79.51;98979.98;1694906;83;21505;-73
2021/07/05 07:07:55;;;;;;;13.15;7.62;;;;;;;24.51;78.73;98974.84;1694390;84;20952;-71
2021/07/05 07:10:23;;;;;;;9.70;8.20;;;;;;;24.54;79.16;98972.77;1694573;83;21007;-73
2021/07/05 07:12:53;;;;;;;9.35;8.30;;;;;;;24.60;79.04;98967.80;1694910;83;21072;-74
2021/07/05 07:15:23;;;;;;;12.93;9.13;;;;;;;24.67;78.62;98965.98;1721919;82;21747;-74
2021/07/05 07:17:57;;;;;;;8.43;7.72;;;;;;;24.73;78.75;98961.79;1740454;82;21037;-73
2021/07/05 07:20:17;;;;;;;7.72;7.03;;;;;;;24.79;77.49;98960.12;1738131;82;21057;-74
2021/07/05 07:22:44;;;;;;;12.68;9.68;;;;;;;24.84;76.74;98969.47;1739101;82;21092;-77
2021/07/05 07:25:13;;;;;;;10.35;8.00;;;;;;;24.89;75.97;98965.09;1711756;82;21065;-76
2021/07/05 07:27:40;;;;;;;15.35;7.22;;;;;;;24.95;75.02;98964.41;1710836;83;21158;-75
2021/07/05 07:30:10;;;;;;;8.20;7.40;;;;;;;25.07;75.24;98968.41;1710809;83;21035;-74
2021/07/05 07:32:37;;;;;;;12.40;6.85;;;;;;;25.15;74.54;98968.75;1710921;83;20905;-74
2021/07/05 07:35:07;;;;;;;7.60;6.83;;;;;;;25.23;74.37;98966.91;1710483;83;21228;-73
2021/07/05 07:37:34;;;;;;;9.63;6.83;;;;;;;25.33;73.21;98974.58;1710977;83;21029;-74
2021/07/05 07:40:18;;;;;;;6.92;6.33;;;;;;;25.37;73.41;98976.05;1710831;83;21572;-75
2021/07/05 07:42:43;;;;;;;8.15;6.25;;;;;;;25.39;73.67;98972.33;1711058;82;21529;-76
2021/07/05 07:45:11;;;;;;;10.10;6.87;;;;;;;25.43;72.85;98967.09;1718105;82;21533;-76
2021/07/05 07:47:38;;;;;;;7.70;6.55;;;;;;;25.51;72.77;98966.08;1740683;82;21613;-77
2021/07/05 07:50:07;;;;;;;7.45;6.22;;;;;;;25.61;72.48;98972.97;1713688;82;21523;-74
2021/07/05 07:52:34;;;;;;;10.38;5.95;;;;;;;25.66;71.87;98966.36;1710866;83;21194;-76
2021/07/05 07:55:02;;;;;;;6.83;5.60;;;;;;;25.71;70.32;98972.95;1715106;82;21136;-74
2021/07/05 07:57:29;;;;;;;11.57;6.37;;;;;;;25.76;69.94;98974.78;1729492;82;21085;-75
2021/07/05 07:59:56;;;;;;;9.75;6.12;;;;;;;25.88;69.57;98984.25;1740304;82;21091;-76
2021/07/05 08:02:23;;;;;;;9.25;6.45;;;;;;;25.97;68.26;98986.17;1740462;82;21045;-73
2021/07/05 08:04:50;;;;;;;13.88;5.20;;;;;;;26.01;67.81;98982.88;1739378;82;21156;-77
2021/07/05 08:07:17;;;;;;;7.05;6.20;;;;;;;26.05;67.41;98986.48;1722414;82;21048;-73
2021/07/05 08:09:44;;;;;;;8.95;6.45;;;;;;;26.13;66.47;98991.55;1740576;82;21057;-73
2021/07/05 08:12:11;;;;;;;6.70;5.40;;;;;;;26.16;65.46;98988.04;1712010;82;21023;-76
2021/07/05 08:14:39;;;;;;;7.62;4.55;;;;;;;26.22;64.40;98992.11;1711021;83;20980;-73
2021/07/05 08:17:07;;;;;;;9.93;5.42;;;;;;;26.27;63.67;98998.69;1738283;82;20906;-74
2021/07/05 08:19:34;;;;;;;14.47;5.55;;;;;;;26.28;64.67;98993.97;1740541;82;21005;-74
2021/07/05 08:22:01;;;;;;;6.90;4.80;;;;;;;26.32;65.43;98999.75;1740470;82;21539;-77
2021/07/05 08:24:28;;;;;;;7.78;5.55;;;;;;;26.39;64.88;98998.45;1738667;82;21049;-77
2021/07/05 08:26:55;;;;;;;5.30;4.90;;;;;;;26.44;64.20;98995.37;1711409;83;21025;-75
2021/07/05 08:29:21;;;;;;;11.00;6.17;;;;;;;26.47;64.69;98998.77;1711032;83;21120;-74
2021/07/05 08:31:48;;;;;;;7.15;5.97;;;;;;;26.53;64.07;98996.48;1711291;83;21606;-73
2021/07/05 08:34:15;;;;;;;10.43;5.62;;;;;;;26.57;64.06;98993.80;1726444;82;21018;-77
2021/07/05 08:36:44;;;;;;;8.13;5.15;;;;;;;26.63;63.75;98987.56;1711952;82;21004;-75
2021/07/05 08:39:13;;;;;;;8.68;6.87;;;;;;;26.62;63.50;98985.20;1711005;83;21075;-73
2021/07/05 08:41:40;;;;;;;7.78;6.20;;;;;;;26.63;63.50;98992.28;1710940;83;21840;-74
2021/07/05 08:44:07;;;;;;;6.33;4.75;;;;;;;26.66;63.66;98986.03;1711106;83;21016;-75
2021/07/05 08:46:34;;;;;;;6.85;5.25;;;;;;;26.73;63.43;98990.25;1711352;83;21085;-74
2021/07/05 08:49:02;;;;;;;5.45;4.95;;;;;;;26.78;63.52;98985.20;1710793;83;21000;-73
2021/07/05 08:51:29;;;;;;;8.28;5.62;;;;;;;26.83;63.06;98990.98;1711255;83;21103;-74
2021/07/05 08:53:56;;;;;;;7.20;5.50;;;;;;;26.87;63.03;98995.41;1711485;83;21163;-73
2021/07/05 08:56:22;;;;;;;7.37;5.47;;;;;;;26.94;62.70;98996.09;1729723;82;21532;-73
2021/07/05 08:58:51;;;;;;;20.00;6.50;;;;;;;27.00;63.40;98994.59;1740787;82;20982;-74
2021/07/05 09:01:21;;;;;;;7.17;5.37;;;;;;;27.04;62.86;98991.87;1734868;82;21072;-75
2021/07/05 09:03:51;;;;;;;7.37;5.50;;;;;;;27.02;62.29;98994.99;1740784;82;21502;-72
2021/07/05 09:06:23;;;;;;;9.13;4.90;;;;;;;27.01;61.97;98988.46;1740176;82;22216;-73
2021/07/05 09:09:08;;;;;;;7.00;4.80;;;;;;;26.97;62.01;98984.86;1741790;82;21060;-73
2021/07/05 09:11:48;;;;;;;7.03;5.30;;;;;;;26.95;62.42;98992.16;1738713;82;20966;-72
2021/07/05 09:14:19;;;;;;;6.05;5.50;;;;;;;26.96;61.96;99000.63;1725888;82;21002;-80
2021/07/05 09:16:48;;;;;;;9.30;5.22;;;;;;;26.94;62.00;98997.47;1712541;82;21577;-79
2021/07/05 09:19:27;;;;;;;8.85;5.20;;;;;;;26.92;60.92;98994.27;1719146;81;20982;-81
2021/07/05 09:22:01;;;;;;;5.15;4.45;;;;;;;26.93;60.46;99002.77;1732224;82;20965;-78
2021/07/05 09:24:43;;;;;;;6.80;3.85;;;;;;;26.96;59.56;98994.31;1705080;83;21058;-79
2021/07/05 09:27:12;;;;;;;10.35;4.50;;;;;;;27.04;59.75;98994.63;1706610;83;21017;-78
2021/07/05 09:29:41;;;;;;;4.58;4.15;;;;;;;27.11;59.00;98998.25;1727539;82;21513;-79
2021/07/05 09:32:13;;;;;;;5.40;4.28;;;;;;;27.18;59.58;98998.35;1692872;84;21175;-77
2021/07/05 09:34:42;;;;;;;4.83;4.40;;;;;;;27.29;59.70;98996.48;1693401;83;21004;-77
2021/07/05 09:37:23;;;;;;;6.00;5.40;;;;;;;27.43;59.96;98994.48;1706662;83;20996;-77
2021/07/05 09:40:08;;;;;;;7.22;5.75;;;;;;;27.47;60.36;99005.56;1699463;83;21075;-77
2021/07/05 09:42:48;;;;;;;8.35;4.78;;;;;;;27.56;59.97;99000.55;1723034;82;21080;-77
2021/07/05 09:45:29;;;;;;;5.55;5.10;;;;;;;27.62;59.92;98997.08;1706821;84;21165;-76
2021/07/05 09:48:25;;;;;;;6.50;4.67;;;;;;;27.68;59.13;99003.02;1708835;82;21056;-71
2021/07/05 09:51:00;;;;;;;4.30;3.87;;;;;;;27.69;58.78;99006.00;1708963;82;42170;-72
2021/07/05 09:53:43;;;;;;;;;;;;;;;27.73;59.04;98998.53;1691949;84;21002;-72
2021/07/05 09:56:26;;;;;;;8.08;4.40;;;;;;;27.79;58.45;98996.22;1687493;84;20148;-76
2021/07/05 09:58:56;;;;;;;6.95;4.72;;;;;;;27.81;58.61;98991.91;1687536;85;22181;-76
2021/07/05 10:01:40;;;;;;;5.92;4.20;;;;;;;27.84;58.19;98991.14;1687110;84;21012;-76
2021/07/05 10:04:22;;;;;;;4.83;4.33;;;;;;;27.88;58.44;98995.31;1667236;85;20997;-81
2021/07/05 10:06:47;;;;;;;7.12;4.05;;;;;;;27.92;57.82;98996.13;1701364;83;20992;-81
2021/07/05 10:09:37;;;;;;;5.45;4.00;;;;;;;27.92;57.03;99008.57;1709356;83;21510;-76
2021/07/05 10:12:26;;;;;;;8.85;4.42;;;;;;;27.87;56.90;99001.42;1706571;84;21760;-72
2021/07/05 10:15:07;;;;;;;5.08;4.58;;;;;;;27.91;57.53;99008.39;1692799;84;21008;-73
2021/07/05 10:17:42;;;;;;;6.05;3.75;;;;;;;27.94;56.60;99003.47;1708431;82;21889;-76
2021/07/05 10:20:13;;;;;;;3.92;3.50;;;;;;;27.99;56.11;99001.15;1706596;82;20995;-76
2021/07/05 10:22:41;;;;;;;8.78;5.28;;;;;;;28.11;56.23;98997.30;1710493;83;21024;-76
2021/07/05 10:25:09;;;;;;;5.97;3.87;;;;;;;28.19;56.06;98990.67;1711063;83;21151;-74
2021/07/05 10:27:36;;;;;;;7.15;4.55;;;;;;;28.28;55.54;98991.12;1735897;82;20965;-75
2021/07/05 10:30:09;;;;;;;9.13;4.28;;;;;;;28.35;54.76;98980.09;1740627;82;20994;-78
2021/07/05 10:32:36;;;;;;;6.80;4.28;;;;;;;28.44;54.86;98983.30;1727479;82;21021;-74
2021/07/05 10:35:03;;;;;;;6.72;4.65;;;;;;;28.45;55.29;98977.98;1740616;82;21553;-73
2021/07/05 10:37:47;;;;;;;5.80;5.37;;;;;;;28.52;55.52;98978.04;1740765;82;21621;-74
2021/07/05 10:40:14;;;;;;;9.93;4.22;;;;;;;28.65;55.23;98991.53;1729376;82;20996;-72
2021/07/05 10:42:48;;;;;;;7.47;4.20;;;;;;;28.65;53.62;98989.56;1710819;83;21111;-74
2021/07/05 10:45:18;;;;;;;5.40;3.62;;;;;;;28.58;53.76;98997.84;1710567;82;21009;-79
2021/07/05 10:47:56;;;;;;;10.37;4.13;;;;;;;28.43;53.54;98987.86;1711363;83;20977;-77
2021/07/05 10:50:47;;;;;;;12.03;4.60;;;;;;;28.32;54.18;98988.37;1720989;82;21152;-76
2021/07/05 10:53:39;;;;;;;7.47;4.95;;;;;;;28.23;54.60;98988.72;1740748;82;20950;-77
2021/07/05 10:56:31;;;;;;;8.50;4.95;;;;;;;28.14;55.05;98989.64;1740506;82;21475;-75
2021/07/05 10:59:18;;;;;;;7.33;3.75;;;;;;;28.12;55.04;98988.63;1740317;82;21041;-76
2021/07/05 11:01:48;;;;;;;4.67;4.20;;;;;;;28.18;54.71;98984.34;1717532;82;21083;-73
2021/07/05 11:04:30;;;;;;;9.25;4.20;;;;;;;28.18;54.34;98987.11;1711170;83;21087;-74
2021/07/05 11:07:16;;;;;;;5.70;3.85;;;;;;;28.22;53.72;98977.44;1710772;83;20988;-72
2021/07/05 11:09:57;;;;;;;4.60;3.60;;;;;;;28.33;53.74;98985.23;1711185;83;21011;-72
2021/07/05 11:12:33;;;;;;;4.87;4.35;;;;;;;28.42;53.39;98982.13;1734568;82;21004;-73
2021/07/05 11:15:01;;;;;;;8.08;4.40;;;;;;;28.43;53.16;98974.83;1723855;80;20985;-71
2021/07/05 11:17:29;;;;;;;6.50;4.17;;;;;;;28.46;54.10;98978.78;1740503;82;21134;-72
2021/07/05 11:19:58;;;;;;;4.62;4.00;;;;;;;28.51;54.17;98977.03;1744040;82;20863;-73
2021/07/05 11:22:36;;;;;;;11.55;4.70;;;;;;;28.57;54.61;98984.59;1714901;82;21069;-73
2021/07/05 11:25:25;;;;;;;6.45;3.72;;;;;;;28.60;53.70;98975.50;1725993;82;21023;-71
2021/07/05 11:28:01;;;;;;;5.12;4.10;;;;;;;28.55;53.41;98981.99;1740601;82;21523;-74
2021/07/05 11:30:37;;;;;;;6.33;3.72;;;;;;;28.46;53.17;98985.70;1740022;82;21772;-72
2021/07/05 11:33:16;;;;;;;12.07;4.28;;;;;;;28.38;53.79;98985.45;1740597;82;21036;-71
2021/07/05 11:35:53;;;;;;;7.15;4.05;;;;;;;28.41;54.28;98981.91;1736550;82;21060;-74
2021/07/05 11:38:33;;;;;;;4.72;3.80;;;;;;;28.46;54.48;98973.25;1740520;82;21057;-72
2021/07/05 11:41:14;;;;;;;7.37;5.05;;;;;;;28.44;54.74;98970.86;1729997;82;21055;-68